Wabigoon, Canada
Current Conditions -  °F | °C
As of 11:00 AM on Friday 31 Oct 2014 (Local Time) from CYHD Reporting Station
Broken Clouds Broken Clouds  
Wind Chill: 19°   Ceiling: 1100
Heat Index: 25°   Visibility: 9mi
Dew Point: 21°   Wind: 5mph
Humidity: 86%   Direction: 250°WSW
Pressure: 30.54"   Gusts: NA
Location:  49.72°N, 92.6°W
Report Text: CYHD 311600Z AUTO 25004KT 220V280 9SM BKN011 M04/M06 A3054 RMK SLP369
Loading
Personal Weather Stations






























Interactive Weather Map
Tropical Storm Tracking
New forecast layout! Learn more

10-Day Weather Forecast

Advertisements
Track Severe Weather on mobile